sensor_id;sensor_type;location;lat;lon;timestamp;P1;durP1;ratioP1;P2;durP2;ratioP2
47812;SDS011;34221;45.296;9.516;2024-02-28T14:16:13;3.15;;;2.65;;
47812;SDS011;34221;45.296;9.516;2024-02-28T14:16:29;3.95;;;3.22;;
47812;SDS011;34221;45.296;9.516;2024-02-28T14:16:46;5.90;;;4.35;;
47812;SDS011;34221;45.296;9.516;2024-02-28T14:17:01;5.93;;;4.17;;
47812;SDS011;34221;45.296;9.516;2024-02-28T14:17:15;5.25;;;3.88;;
47812;SDS011;34221;45.296;9.516;2024-02-28T14:17:30;5.78;;;4.18;;
47812;SDS011;34221;45.296;9.516;2024-02-28T14:17:45;7.43;;;4.45;;
47812;SDS011;34221;45.296;9.516;2024-02-28T14:18:01;7.53;;;4.57;;
47812;SDS011;34221;45.296;9.516;2024-02-28T14:18:16;6.25;;;4.80;;
47812;SDS011;34221;45.296;9.516;2024-02-28T14:18:31;7.18;;;4.93;;
47812;SDS011;34221;45.296;9.516;2024-02-28T14:18:47;6.55;;;4.85;;
47812;SDS011;34221;45.296;9.516;2024-02-28T14:19:01;5.55;;;4.60;;
47812;SDS011;34221;45.296;9.516;2024-02-28T14:19:17;6.40;;;4.78;;
47812;SDS011;34221;45.296;9.516;2024-02-28T14:19:31;7.35;;;5.53;;
47812;SDS011;34221;45.296;9.516;2024-02-28T14:19:46;7.25;;;5.28;;
47812;SDS011;34221;45.296;9.516;2024-02-28T14:20:02;6.68;;;4.90;;
47812;SDS011;34221;45.296;9.516;2024-02-28T14:20:17;7.38;;;5.25;;
47812;SDS011;34221;45.296;9.516;2024-02-28T14:20:32;8.02;;;5.30;;
47812;SDS011;34221;45.296;9.516;2024-02-28T14:20:47;7.22;;;5.10;;
47812;SDS011;34221;45.296;9.516;2024-02-28T14:21:02;7.18;;;5.38;;
47812;SDS011;34221;45.296;9.516;2024-02-28T14:21:17;6.95;;;5.40;;
47812;SDS011;34221;45.296;9.516;2024-02-28T14:21:32;5.95;;;4.97;;
47812;SDS011;34221;45.296;9.516;2024-02-28T14:21:47;6.45;;;4.90;;
47812;SDS011;34221;45.296;9.516;2024-02-28T14:22:03;8.15;;;5.45;;
47812;SDS011;34221;45.296;9.516;2024-02-28T14:22:18;8.68;;;5.85;;
47812;SDS011;34221;45.296;9.516;2024-02-28T14:22:33;7.03;;;5.30;;
47812;SDS011;34221;45.296;9.516;2024-02-28T14:22:47;6.38;;;5.07;;
47812;SDS011;34221;45.296;9.516;2024-02-28T14:23:02;6.93;;;4.95;;
47812;SDS011;34221;45.296;9.516;2024-02-28T14:23:18;7.93;;;5.43;;
47812;SDS011;34221;45.296;9.516;2024-02-28T14:23:32;7.20;;;5.23;;
47812;SDS011;34221;45.296;9.516;2024-02-28T14:23:47;6.45;;;4.78;;
47812;SDS011;34221;45.296;9.516;2024-02-28T14:24:02;6.57;;;4.65;;
47812;SDS011;34221;45.296;9.516;2024-02-28T14:24:17;7.00;;;4.97;;
47812;SDS011;34221;45.296;9.516;2024-02-28T14:24:33;7.05;;;5.13;;
47812;SDS011;34221;45.296;9.516;2024-02-28T14:24:48;6.72;;;5.13;;
47812;SDS011;34221;45.296;9.516;2024-02-28T14:25:02;6.80;;;5.28;;
47812;SDS011;34221;45.296;9.516;2024-02-28T14:25:18;6.63;;;4.80;;
47812;SDS011;34221;45.296;9.516;2024-02-28T14:25:36;6.50;;;4.55;;
47812;SDS011;34221;45.296;9.516;2024-02-28T14:25:50;7.57;;;5.13;;
47812;SDS011;34221;45.296;9.516;2024-02-28T14:26:05;7.38;;;4.90;;
47812;SDS011;34221;45.296;9.516;2024-02-28T14:26:21;6.05;;;4.57;;
47812;SDS011;34221;45.296;9.516;2024-02-28T14:26:38;6.38;;;4.72;;
47812;SDS011;34221;45.296;9.516;2024-02-28T14:26:52;7.03;;;4.63;;
47812;SDS011;34221;45.296;9.516;2024-02-28T14:27:07;8.13;;;4.90;;
47812;SDS011;34221;45.296;9.516;2024-02-28T14:27:23;8.02;;;5.18;;
47812;SDS011;34221;45.296;9.516;2024-02-28T14:27:39;6.95;;;5.00;;
47812;SDS011;34221;45.296;9.516;2024-02-28T14:27:55;6.13;;;4.78;;
47812;SDS011;34221;45.296;9.516;2024-02-28T14:28:10;5.67;;;4.30;;
47812;SDS011;34221;45.296;9.516;2024-02-28T14:28:25;5.35;;;4.00;;
47812;SDS011;34221;45.296;9.516;2024-02-28T14:28:39;5.75;;;4.30;;
47812;SDS011;34221;45.296;9.516;2024-02-28T14:28:55;5.70;;;4.32;;
47812;SDS011;34221;45.296;9.516;2024-02-28T14:29:10;6.30;;;4.57;;
47812;SDS011;34221;45.296;9.516;2024-02-28T14:29:25;6.53;;;4.68;;
47812;SDS011;34221;45.296;9.516;2024-02-28T14:29:40;6.10;;;4.75;;
47812;SDS011;34221;45.296;9.516;2024-02-28T14:29:55;6.25;;;4.40;;
47812;SDS011;34221;45.296;9.516;2024-02-28T14:30:10;6.50;;;4.50;;
47812;SDS011;34221;45.296;9.516;2024-02-28T14:30:25;6.03;;;4.65;;
47812;SDS011;34221;45.296;9.516;2024-02-28T14:30:40;5.20;;;4.07;;
47812;SDS011;34221;45.296;9.516;2024-02-28T14:30:56;5.50;;;4.20;;
47812;SDS011;34221;45.296;9.516;2024-02-28T14:31:11;5.32;;;3.92;;
47812;SDS011;34221;45.296;9.516;2024-02-28T14:31:26;5.23;;;4.07;;
47812;SDS011;34221;45.296;9.516;2024-02-28T14:31:41;5.22;;;4.20;;
47812;SDS011;34221;45.296;9.516;2024-02-28T14:31:56;5.45;;;4.20;;
47812;SDS011;34221;45.296;9.516;2024-02-28T14:32:11;6.47;;;4.57;;
47812;SDS011;34221;45.296;9.516;2024-02-28T14:32:29;6.28;;;4.13;;
47812;SDS011;34221;45.296;9.516;2024-02-28T14:32:43;4.87;;;3.50;;
47812;SDS011;34221;45.296;9.516;2024-02-28T14:32:58;5.50;;;3.78;;
47812;SDS011;34221;45.296;9.516;2024-02-28T14:33:13;5.30;;;4.07;;
47812;SDS011;34221;45.296;9.516;2024-02-28T14:33:28;4.93;;;4.03;;
47812;SDS011;34221;45.296;9.516;2024-02-28T14:33:43;4.80;;;3.65;;
47812;SDS011;34221;45.296;9.516;2024-02-28T14:33:59;4.25;;;3.47;;
47812;SDS011;34221;45.296;9.516;2024-02-28T14:34:14;4.43;;;3.53;;
47812;SDS011;34221;45.296;9.516;2024-02-28T14:34:29;5.07;;;3.60;;
47812;SDS011;34221;45.296;9.516;2024-02-28T14:34:45;5.05;;;3.53;;
47812;SDS011;34221;45.296;9.516;2024-02-28T14:35:00;4.50;;;3.45;;
47812;SDS011;34221;45.296;9.516;2024-02-28T14:35:15;4.82;;;3.63;;
47812;SDS011;34221;45.296;9.516;2024-02-28T14:35:30;4.95;;;3.78;;
47812;SDS011;34221;45.296;9.516;2024-02-28T14:35:45;4.70;;;3.50;;
47812;SDS011;34221;45.296;9.516;2024-02-28T14:35:59;4.47;;;3.37;;
47812;SDS011;34221;45.296;9.516;2024-02-28T14:36:14;4.90;;;3.60;;
47812;SDS011;34221;45.296;9.516;2024-02-28T14:36:29;5.38;;;3.50;;
47812;SDS011;34221;45.296;9.516;2024-02-28T14:36:44;5.07;;;3.42;;
47812;SDS011;34221;45.296;9.516;2024-02-28T14:36:58;5.57;;;3.78;;
47812;SDS011;34221;45.296;9.516;2024-02-28T14:37:13;5.78;;;4.00;;
47812;SDS011;34221;45.296;9.516;2024-02-28T14:37:28;6.03;;;3.93;;
47812;SDS011;34221;45.296;9.516;2024-02-28T14:37:43;5.72;;;3.83;;
47812;SDS011;34221;45.296;9.516;2024-02-28T14:37:58;4.75;;;3.80;;
47812;SDS011;34221;45.296;9.516;2024-02-28T14:38:13;5.63;;;3.93;;
47812;SDS011;34221;45.296;9.516;2024-02-28T14:38:27;7.40;;;4.03;;
47812;SDS011;34221;45.296;9.516;2024-02-28T14:38:42;8.50;;;4.03;;
47812;SDS011;34221;45.296;9.516;2024-02-28T14:38:57;6.88;;;3.70;;
47812;SDS011;34221;45.296;9.516;2024-02-28T14:39:12;4.38;;;3.40;;
47812;SDS011;34221;45.296;9.516;2024-02-28T14:39:29;4.80;;;3.60;;
47812;SDS011;34221;45.296;9.516;2024-02-28T14:39:44;4.55;;;3.40;;
47812;SDS011;34221;45.296;9.516;2024-02-28T14:39:59;4.63;;;3.53;;
47812;SDS011;34221;45.296;9.516;2024-02-28T14:40:20;5.78;;;3.80;;
47812;SDS011;34221;45.296;9.516;2024-02-28T14:40:35;5.25;;;3.78;;
47812;SDS011;34221;45.296;9.516;2024-02-28T14:40:49;5.38;;;3.78;;
47812;SDS011;34221;45.296;9.516;2024-02-28T14:41:04;5.35;;;3.70;;
47812;SDS011;34221;45.296;9.516;2024-02-28T14:41:20;5.15;;;3.55;;
47812;SDS011;34221;45.296;9.516;2024-02-28T14:41:35;5.75;;;3.88;;
47812;SDS011;34221;45.296;9.516;2024-02-28T14:41:50;5.57;;;3.80;;
47812;SDS011;34221;45.296;9.516;2024-02-28T14:42:05;4.53;;;3.60;;
47812;SDS011;34221;45.296;9.516;2024-02-28T14:42:22;5.13;;;3.85;;
47812;SDS011;34221;45.296;9.516;2024-02-28T14:42:41;5.28;;;3.67;;
47812;SDS011;34221;45.296;9.516;2024-02-28T14:42:56;4.78;;;3.60;;
47812;SDS011;34221;45.296;9.516;2024-02-28T14:43:11;5.03;;;3.70;;
47812;SDS011;34221;45.296;9.516;2024-02-28T14:43:26;5.10;;;3.72;;
47812;SDS011;34221;45.296;9.516;2024-02-28T14:43:44;5.10;;;3.45;;
47812;SDS011;34221;45.296;9.516;2024-02-28T14:43:58;5.82;;;3.63;;
47812;SDS011;34221;45.296;9.516;2024-02-28T14:44:13;5.85;;;3.92;;
47812;SDS011;34221;45.296;9.516;2024-02-28T14:44:30;5.15;;;3.75;;
47812;SDS011;34221;45.296;9.516;2024-02-28T14:44:45;4.80;;;3.47;;
47812;SDS011;34221;45.296;9.516;2024-02-28T14:45:00;6.32;;;3.55;;
47812;SDS011;34221;45.296;9.516;2024-02-28T14:45:15;6.88;;;3.85;;
47812;SDS011;34221;45.296;9.516;2024-02-28T14:45:29;5.13;;;3.63;;
47812;SDS011;34221;45.296;9.516;2024-02-28T14:45:46;4.90;;;3.35;;
47812;SDS011;34221;45.296;9.516;2024-02-28T14:46:01;5.43;;;3.47;;
47812;SDS011;34221;45.296;9.516;2024-02-28T14:46:16;4.75;;;3.22;;
47812;SDS011;34221;45.296;9.516;2024-02-28T14:46:33;4.28;;;3.20;;
47812;SDS011;34221;45.296;9.516;2024-02-28T14:46:47;4.65;;;3.53;;
47812;SDS011;34221;45.296;9.516;2024-02-28T14:47:02;5.03;;;3.63;;
47812;SDS011;34221;45.296;9.516;2024-02-28T14:47:17;4.93;;;3.72;;
47812;SDS011;34221;45.296;9.516;2024-02-28T14:47:32;4.75;;;3.83;;
47812;SDS011;34221;45.296;9.516;2024-02-28T14:47:48;4.50;;;3.60;;
47812;SDS011;34221;45.296;9.516;2024-02-28T14:48:02;4.88;;;3.67;;
47812;SDS011;34221;45.296;9.516;2024-02-28T14:48:17;5.40;;;3.83;;
47812;SDS011;34221;45.296;9.516;2024-02-28T14:48:32;5.57;;;3.90;;
47812;SDS011;34221;45.296;9.516;2024-02-28T14:48:47;5.70;;;3.95;;
47812;SDS011;34221;45.296;9.516;2024-02-28T14:49:05;5.55;;;4.22;;
47812;SDS011;34221;45.296;9.516;2024-02-28T14:49:21;5.93;;;4.43;;
47812;SDS011;34221;45.296;9.516;2024-02-28T14:49:35;5.95;;;4.13;;
47812;SDS011;34221;45.296;9.516;2024-02-28T14:49:51;6.03;;;3.85;;
47812;SDS011;34221;45.296;9.516;2024-02-28T14:50:06;6.03;;;3.95;;
47812;SDS011;34221;45.296;9.516;2024-02-28T14:50:25;5.10;;;3.80;;
47812;SDS011;34221;45.296;9.516;2024-02-28T14:50:40;5.60;;;3.78;;
47812;SDS011;34221;45.296;9.516;2024-02-28T14:50:56;5.18;;;3.50;;
47812;SDS011;34221;45.296;9.516;2024-02-28T14:51:11;4.95;;;3.72;;
47812;SDS011;34221;45.296;9.516;2024-02-28T14:51:26;5.32;;;3.88;;
47812;SDS011;34221;45.296;9.516;2024-02-28T14:51:41;5.83;;;3.57;;
47812;SDS011;34221;45.296;9.516;2024-02-28T14:52:03;5.72;;;3.83;;
47812;SDS011;34221;45.296;9.516;2024-02-28T14:52:18;5.50;;;3.78;;
47812;SDS011;34221;45.296;9.516;2024-02-28T14:52:32;6.00;;;3.90;;
47812;SDS011;34221;45.296;9.516;2024-02-28T14:52:47;5.88;;;4.03;;
47812;SDS011;34221;45.296;9.516;2024-02-28T14:53:02;5.30;;;3.53;;
47812;SDS011;34221;45.296;9.516;2024-02-28T14:53:17;5.13;;;3.30;;
47812;SDS011;34221;45.296;9.516;2024-02-28T14:53:34;4.85;;;3.40;;
47812;SDS011;34221;45.296;9.516;2024-02-28T14:53:49;5.37;;;3.50;;
47812;SDS011;34221;45.296;9.516;2024-02-28T14:54:04;5.00;;;3.10;;
47812;SDS011;34221;45.296;9.516;2024-02-28T14:54:19;4.10;;;2.92;;
47812;SDS011;34221;45.296;9.516;2024-02-28T14:54:37;4.47;;;3.30;;
47812;SDS011;34221;45.296;9.516;2024-02-28T14:54:53;5.50;;;3.50;;
47812;SDS011;34221;45.296;9.516;2024-02-28T14:55:08;5.35;;;3.17;;
47812;SDS011;34221;45.296;9.516;2024-02-28T14:55:24;4.95;;;3.00;;
47812;SDS011;34221;45.296;9.516;2024-02-28T14:55:39;5.05;;;3.30;;
47812;SDS011;34221;45.296;9.516;2024-02-28T14:55:54;5.25;;;3.60;;
47812;SDS011;34221;45.296;9.516;2024-02-28T14:56:08;5.43;;;3.47;;
47812;SDS011;34221;45.296;9.516;2024-02-28T14:56:23;5.30;;;3.23;;
47812;SDS011;34221;45.296;9.516;2024-02-28T14:56:38;6.18;;;3.70;;
47812;SDS011;34221;45.296;9.516;2024-02-28T14:56:53;6.13;;;3.97;;
47812;SDS011;34221;45.296;9.516;2024-02-28T14:57:08;5.28;;;3.67;;
47812;SDS011;34221;45.296;9.516;2024-02-28T14:57:22;5.40;;;3.78;;
47812;SDS011;34221;45.296;9.516;2024-02-28T14:57:38;5.10;;;3.60;;
47812;SDS011;34221;45.296;9.516;2024-02-28T14:57:56;4.28;;;3.05;;
47812;SDS011;34221;45.296;9.516;2024-02-28T14:58:11;4.15;;;2.90;;
47812;SDS011;34221;45.296;9.516;2024-02-28T14:58:26;5.80;;;3.22;;
47812;SDS011;34221;45.296;9.516;2024-02-28T14:58:41;5.90;;;3.30;;
47812;SDS011;34221;45.296;9.516;2024-02-28T14:58:55;5.00;;;3.20;;
47812;SDS011;34221;45.296;9.516;2024-02-28T14:59:10;4.75;;;3.00;;
47812;SDS011;34221;45.296;9.516;2024-02-28T14:59:25;4.97;;;3.15;;
47812;SDS011;34221;45.296;9.516;2024-02-28T14:59:40;6.50;;;3.50;;
47812;SDS011;34221;45.296;9.516;2024-02-28T14:59:55;5.90;;;3.20;;
47812;SDS011;34221;45.296;9.516;2024-02-28T15:00:09;3.80;;;2.72;;
47812;SDS011;34221;45.296;9.516;2024-02-28T15:00:28;3.65;;;2.70;;
47812;SDS011;34221;45.296;9.516;2024-02-28T15:00:42;4.18;;;2.90;;
47812;SDS011;34221;45.296;9.516;2024-02-28T15:01:01;4.40;;;3.00;;
47812;SDS011;34221;45.296;9.516;2024-02-28T15:01:16;4.00;;;3.08;;
47812;SDS011;34221;45.296;9.516;2024-02-28T15:01:31;3.88;;;3.17;;
47812;SDS011;34221;45.296;9.516;2024-02-28T15:01:46;6.40;;;3.97;;
47812;SDS011;34221;45.296;9.516;2024-02-28T15:02:00;6.73;;;3.90;;
47812;SDS011;34221;45.296;9.516;2024-02-28T15:02:15;5.20;;;3.27;;
47812;SDS011;34221;45.296;9.516;2024-02-28T15:02:30;4.85;;;3.13;;
47812;SDS011;34221;45.296;9.516;2024-02-28T15:02:45;4.60;;;2.95;;
47812;SDS011;34221;45.296;9.516;2024-02-28T15:02:59;4.65;;;3.00;;
47812;SDS011;34221;45.296;9.516;2024-02-28T15:03:14;3.83;;;2.77;;
47812;SDS011;34221;45.296;9.516;2024-02-28T15:03:29;8.13;;;3.40;;
47812;SDS011;34221;45.296;9.516;2024-02-28T15:03:44;8.57;;;3.50;;
47812;SDS011;34221;45.296;9.516;2024-02-28T15:04:00;4.68;;;3.20;;
47812;SDS011;34221;45.296;9.516;2024-02-28T15:04:15;5.18;;;3.40;;
47812;SDS011;34221;45.296;9.516;2024-02-28T15:04:30;5.10;;;3.38;;
47812;SDS011;34221;45.296;9.516;2024-02-28T15:04:45;5.43;;;3.38;;
47812;SDS011;34221;45.296;9.516;2024-02-28T15:05:00;5.30;;;3.30;;
47812;SDS011;34221;45.296;9.516;2024-02-28T15:05:16;4.63;;;3.45;;
47812;SDS011;34221;45.296;9.516;2024-02-28T15:05:30;4.82;;;3.38;;
47812;SDS011;34221;45.296;9.516;2024-02-28T15:05:45;4.70;;;2.90;;
47812;SDS011;34221;45.296;9.516;2024-02-28T15:06:01;4.88;;;2.83;;
47812;SDS011;34221;45.296;9.516;2024-02-28T15:06:15;4.53;;;2.90;;
47812;SDS011;34221;45.296;9.516;2024-02-28T15:06:30;4.45;;;3.03;;
47812;SDS011;34221;45.296;9.516;2024-02-28T15:06:45;5.53;;;3.10;;
47812;SDS011;34221;45.296;9.516;2024-02-28T15:07:00;5.00;;;3.00;;
47812;SDS011;34221;45.296;9.516;2024-02-28T15:07:16;4.30;;;2.90;;
47812;SDS011;34221;45.296;9.516;2024-02-28T15:07:32;4.57;;;2.95;;
47812;SDS011;34221;45.296;9.516;2024-02-28T15:07:48;4.15;;;2.97;;
47812;SDS011;34221;45.296;9.516;2024-02-28T15:08:03;4.32;;;3.17;;
47812;SDS011;34221;45.296;9.516;2024-02-28T15:08:18;5.13;;;3.13;;
47812;SDS011;34221;45.296;9.516;2024-02-28T15:08:33;4.72;;;2.95;;
47812;SDS011;34221;45.296;9.516;2024-02-28T15:08:47;3.80;;;2.97;;
47812;SDS011;34221;45.296;9.516;2024-02-28T15:09:03;3.88;;;2.90;;
47812;SDS011;34221;45.296;9.516;2024-02-28T15:09:19;3.95;;;2.80;;
47812;SDS011;34221;45.296;9.516;2024-02-28T15:09:35;4.43;;;3.00;;
47812;SDS011;34221;45.296;9.516;2024-02-28T15:09:50;4.78;;;3.03;;
47812;SDS011;34221;45.296;9.516;2024-02-28T15:10:05;4.10;;;2.90;;
47812;SDS011;34221;45.296;9.516;2024-02-28T15:10:21;3.83;;;2.75;;
47812;SDS011;34221;45.296;9.516;2024-02-28T15:10:35;4.65;;;2.90;;
47812;SDS011;34221;45.296;9.516;2024-02-28T15:10:50;4.47;;;2.85;;
47812;SDS011;34221;45.296;9.516;2024-02-28T15:11:06;4.32;;;2.85;;
47812;SDS011;34221;45.296;9.516;2024-02-28T15:11:22;5.05;;;3.30;;
47812;SDS011;34221;45.296;9.516;2024-02-28T15:11:37;5.95;;;3.60;;
47812;SDS011;34221;45.296;9.516;2024-02-28T15:11:52;5.45;;;3.50;;
47812;SDS011;34221;45.296;9.516;2024-02-28T15:12:07;6.60;;;3.40;;
47812;SDS011;34221;45.296;9.516;2024-02-28T15:12:23;8.00;;;3.70;;
47812;SDS011;34221;45.296;9.516;2024-02-28T15:12:37;6.30;;;3.43;;
47812;SDS011;34221;45.296;9.516;2024-02-28T15:12:54;4.60;;;2.72;;
47812;SDS011;34221;45.296;9.516;2024-02-28T15:13:09;4.13;;;2.60;;
47812;SDS011;34221;45.296;9.516;2024-02-28T15:13:24;4.57;;;3.10;;
47812;SDS011;34221;45.296;9.516;2024-02-28T15:13:39;4.47;;;3.33;;
47812;SDS011;34221;45.296;9.516;2024-02-28T15:13:54;4.53;;;3.28;;
47812;SDS011;34221;45.296;9.516;2024-02-28T15:14:08;5.70;;;3.25;;
47812;SDS011;34221;45.296;9.516;2024-02-28T15:14:23;6.05;;;3.42;;
47812;SDS011;34221;45.296;9.516;2024-02-28T15:14:39;7.22;;;3.67;;
47812;SDS011;34221;45.296;9.516;2024-02-28T15:14:54;6.07;;;3.08;;
47812;SDS011;34221;45.296;9.516;2024-02-28T15:15:14;3.45;;;2.58;;
47812;SDS011;34221;45.296;9.516;2024-02-28T15:15:29;3.50;;;2.75;;
47812;SDS011;34221;45.296;9.516;2024-02-28T15:15:44;3.83;;;2.67;;
47812;SDS011;34221;45.296;9.516;2024-02-28T15:15:58;4.10;;;2.60;;
47812;SDS011;34221;45.296;9.516;2024-02-28T15:16:13;3.83;;;2.63;;
47812;SDS011;34221;45.296;9.516;2024-02-28T15:16:28;4.05;;;2.92;;
47812;SDS011;34221;45.296;9.516;2024-02-28T15:16:43;4.15;;;2.90;;
47812;SDS011;34221;45.296;9.516;2024-02-28T15:16:57;4.03;;;2.63;;
47812;SDS011;34221;45.296;9.516;2024-02-28T15:17:12;4.40;;;2.70;;
47812;SDS011;34221;45.296;9.516;2024-02-28T15:17:27;4.20;;;2.60;;
47812;SDS011;34221;45.296;9.516;2024-02-28T15:17:41;3.88;;;2.67;;
47812;SDS011;34221;45.296;9.516;2024-02-28T15:17:56;3.92;;;2.80;;
47812;SDS011;34221;45.296;9.516;2024-02-28T15:18:11;5.00;;;3.13;;
47812;SDS011;34221;45.296;9.516;2024-02-28T15:18:26;4.95;;;3.15;;
47812;SDS011;34221;45.296;9.516;2024-02-28T15:18:41;4.20;;;3.03;;
47812;SDS011;34221;45.296;9.516;2024-02-28T15:18:56;4.17;;;3.00;;
47812;SDS011;34221;45.296;9.516;2024-02-28T15:19:10;4.63;;;2.97;;
47812;SDS011;34221;45.296;9.516;2024-02-28T15:19:26;5.12;;;3.00;;
47812;SDS011;34221;45.296;9.516;2024-02-28T15:19:41;4.47;;;2.85;;
47812;SDS011;34221;45.296;9.516;2024-02-28T15:19:55;4.03;;;2.90;;
47812;SDS011;34221;45.296;9.516;2024-02-28T15:20:10;3.70;;;2.80;;
47812;SDS011;34221;45.296;9.516;2024-02-28T15:20:25;5.32;;;3.17;;
47812;SDS011;34221;45.296;9.516;2024-02-28T15:20:40;6.28;;;3.30;;
47812;SDS011;34221;45.296;9.516;2024-02-28T15:20:55;4.90;;;2.93;;
47812;SDS011;34221;45.296;9.516;2024-02-28T15:21:10;4.75;;;3.13;;
47812;SDS011;34221;45.296;9.516;2024-02-28T15:21:25;4.57;;;3.10;;
47812;SDS011;34221;45.296;9.516;2024-02-28T15:21:41;4.38;;;3.00;;
47812;SDS011;34221;45.296;9.516;2024-02-28T15:21:55;3.90;;;2.78;;
47812;SDS011;34221;45.296;9.516;2024-02-28T15:22:11;4.43;;;2.80;;
47812;SDS011;34221;45.296;9.516;2024-02-28T15:22:26;4.35;;;2.83;;
47812;SDS011;34221;45.296;9.516;2024-02-28T15:22:41;4.00;;;2.70;;
47812;SDS011;34221;45.296;9.516;2024-02-28T15:22:55;4.60;;;2.87;;
47812;SDS011;34221;45.296;9.516;2024-02-28T15:23:10;4.75;;;3.10;;
47812;SDS011;34221;45.296;9.516;2024-02-28T15:23:25;4.13;;;2.97;;
47812;SDS011;34221;45.296;9.516;2024-02-28T15:23:39;4.47;;;2.72;;
47812;SDS011;34221;45.296;9.516;2024-02-28T15:23:54;4.73;;;2.63;;
47812;SDS011;34221;45.296;9.516;2024-02-28T15:24:09;3.57;;;2.27;;
47812;SDS011;34221;45.296;9.516;2024-02-28T15:24:24;3.40;;;2.58;;
47812;SDS011;34221;45.296;9.516;2024-02-28T15:24:40;3.97;;;2.80;;
47812;SDS011;34221;45.296;9.516;2024-02-28T15:24:55;4.70;;;2.83;;
47812;SDS011;34221;45.296;9.516;2024-02-28T15:25:11;4.93;;;2.72;;
47812;SDS011;34221;45.296;9.516;2024-02-28T15:25:25;3.65;;;2.40;;
47812;SDS011;34221;45.296;9.516;2024-02-28T15:25:40;3.45;;;2.42;;
47812;SDS011;34221;45.296;9.516;2024-02-28T15:25:55;4.10;;;2.60;;
47812;SDS011;34221;45.296;9.516;2024-02-28T15:26:10;3.85;;;2.53;;
47812;SDS011;34221;45.296;9.516;2024-02-28T15:26:24;4.13;;;2.90;;
47812;SDS011;34221;45.296;9.516;2024-02-28T15:26:39;7.57;;;3.00;;
47812;SDS011;34221;45.296;9.516;2024-02-28T15:26:54;7.50;;;2.83;;
47812;SDS011;34221;45.296;9.516;2024-02-28T15:27:09;4.80;;;3.00;;
47812;SDS011;34221;45.296;9.516;2024-02-28T15:27:25;4.25;;;2.80;;
47812;SDS011;34221;45.296;9.516;2024-02-28T15:27:40;3.05;;;2.30;;
47812;SDS011;34221;45.296;9.516;2024-02-28T15:27:54;3.38;;;2.35;;
47812;SDS011;34221;45.296;9.516;2024-02-28T15:28:09;4.18;;;2.75;;
47812;SDS011;34221;45.296;9.516;2024-02-28T15:28:24;4.28;;;2.67;;
47812;SDS011;34221;45.296;9.516;2024-02-28T15:28:40;3.85;;;2.35;;
47812;SDS011;34221;45.296;9.516;2024-02-28T15:28:55;3.95;;;2.60;;
47812;SDS011;34221;45.296;9.516;2024-02-28T15:29:10;4.28;;;2.78;;
47812;SDS011;34221;45.296;9.516;2024-02-28T15:29:25;3.83;;;2.58;;
47812;SDS011;34221;45.296;9.516;2024-02-28T15:29:41;3.28;;;2.45;;
47812;SDS011;34221;45.296;9.516;2024-02-28T15:29:56;3.38;;;2.22;;
47812;SDS011;34221;45.296;9.516;2024-02-28T15:30:11;3.50;;;2.13;;
47812;SDS011;34221;45.296;9.516;2024-02-28T15:30:26;4.07;;;2.37;;
47812;SDS011;34221;45.296;9.516;2024-02-28T15:30:41;4.30;;;2.60;;
47812;SDS011;34221;45.296;9.516;2024-02-28T15:30:56;4.35;;;2.70;;
47812;SDS011;34221;45.296;9.516;2024-02-28T15:31:11;4.35;;;2.70;;
47812;SDS011;34221;45.296;9.516;2024-02-28T15:31:26;4.55;;;2.63;;
47812;SDS011;34221;45.296;9.516;2024-02-28T15:31:42;4.40;;;2.70;;
47812;SDS011;34221;45.296;9.516;2024-02-28T15:31:57;4.13;;;2.90;;
47812;SDS011;34221;45.296;9.516;2024-02-28T15:32:12;3.80;;;2.63;;
47812;SDS011;34221;45.296;9.516;2024-02-28T15:32:26;3.33;;;2.53;;
47812;SDS011;34221;45.296;9.516;2024-02-28T15:32:41;3.83;;;2.80;;
47812;SDS011;34221;45.296;9.516;2024-02-28T15:32:56;4.22;;;2.80;;
47812;SDS011;34221;45.296;9.516;2024-02-28T15:33:11;3.78;;;2.65;;
47812;SDS011;34221;45.296;9.516;2024-02-28T15:33:25;3.75;;;2.67;;
47812;SDS011;34221;45.296;9.516;2024-02-28T15:33:40;3.60;;;2.50;;
47812;SDS011;34221;45.296;9.516;2024-02-28T15:33:55;3.90;;;2.47;;
47812;SDS011;34221;45.296;9.516;2024-02-28T15:34:11;4.35;;;2.50;;
47812;SDS011;34221;45.296;9.516;2024-02-28T15:34:26;3.58;;;2.53;;
47812;SDS011;34221;45.296;9.516;2024-02-28T15:34:41;3.50;;;2.55;;
47812;SDS011;34221;45.296;9.516;2024-02-28T15:34:56;3.30;;;2.38;;
47812;SDS011;34221;45.296;9.516;2024-02-28T15:35:11;3.07;;;2.33;;
47812;SDS011;34221;45.296;9.516;2024-02-28T15:35:26;3.13;;;2.35;;
47812;SDS011;34221;45.296;9.516;2024-02-28T15:35:40;3.67;;;2.50;;
47812;SDS011;34221;45.296;9.516;2024-02-28T15:35:55;4.05;;;2.55;;
47812;SDS011;34221;45.296;9.516;2024-02-28T15:36:10;3.95;;;2.58;;
47812;SDS011;34221;45.296;9.516;2024-02-28T15:36:25;4.18;;;2.70;;
47812;SDS011;34221;45.296;9.516;2024-02-28T15:36:40;4.55;;;2.70;;
47812;SDS011;34221;45.296;9.516;2024-02-28T15:36:55;4.22;;;2.50;;
47812;SDS011;34221;45.296;9.516;2024-02-28T15:37:09;3.53;;;2.23;;
47812;SDS011;34221;45.296;9.516;2024-02-28T15:37:25;3.92;;;2.50;;
47812;SDS011;34221;45.296;9.516;2024-02-28T15:37:40;5.20;;;2.88;;
47812;SDS011;34221;45.296;9.516;2024-02-28T15:37:55;5.07;;;2.92;;
47812;SDS011;34221;45.296;9.516;2024-02-28T15:38:09;3.80;;;2.50;;
47812;SDS011;34221;45.296;9.516;2024-02-28T15:38:27;3.85;;;2.25;;
47812;SDS011;34221;45.296;9.516;2024-02-28T15:38:41;3.63;;;2.20;;
47812;SDS011;34221;45.296;9.516;2024-02-28T15:38:56;3.00;;;2.08;;
47812;SDS011;34221;45.296;9.516;2024-02-28T15:39:11;7.30;;;2.60;;
47812;SDS011;34221;45.296;9.516;2024-02-28T15:39:26;8.60;;;2.90;;
47812;SDS011;34221;45.296;9.516;2024-02-28T15:39:40;5.15;;;2.50;;
47812;SDS011;34221;45.296;9.516;2024-02-28T15:39:55;4.10;;;2.25;;
47812;SDS011;34221;45.296;9.516;2024-02-28T15:40:10;4.60;;;2.30;;
47812;SDS011;34221;45.296;9.516;2024-02-28T15:40:25;5.28;;;2.30;;
47812;SDS011;34221;45.296;9.516;2024-02-28T15:40:40;4.60;;;2.33;;
47812;SDS011;34221;45.296;9.516;2024-02-28T15:40:55;3.92;;;2.50;;
47812;SDS011;34221;45.296;9.516;2024-02-28T15:41:10;3.53;;;2.50;;
47812;SDS011;34221;45.296;9.516;2024-02-28T15:41:24;4.05;;;2.70;;
47812;SDS011;34221;45.296;9.516;2024-02-28T15:41:39;3.75;;;2.50;;
47812;SDS011;34221;45.296;9.516;2024-02-28T15:41:54;3.17;;;2.20;;
47812;SDS011;34221;45.296;9.516;2024-02-28T15:42:10;4.03;;;2.33;;
47812;SDS011;34221;45.296;9.516;2024-02-28T15:42:26;4.45;;;2.67;;
47812;SDS011;34221;45.296;9.516;2024-02-28T15:42:41;5.40;;;2.87;;
47812;SDS011;34221;45.296;9.516;2024-02-28T15:42:55;4.77;;;2.37;;
47812;SDS011;34221;45.296;9.516;2024-02-28T15:43:12;4.07;;;2.25;;
47812;SDS011;34221;45.296;9.516;2024-02-28T15:43:28;4.63;;;2.47;;
47812;SDS011;34221;45.296;9.516;2024-02-28T15:43:42;3.60;;;2.53;;
47812;SDS011;34221;45.296;9.516;2024-02-28T15:43:57;3.25;;;2.30;;
47812;SDS011;34221;45.296;9.516;2024-02-28T15:44:12;3.22;;;2.00;;
47812;SDS011;34221;45.296;9.516;2024-02-28T15:44:27;3.17;;;2.20;;
47812;SDS011;34221;45.296;9.516;2024-02-28T15:44:42;3.30;;;2.30;;
47812;SDS011;34221;45.296;9.516;2024-02-28T15:44:57;3.77;;;2.37;;
47812;SDS011;34221;45.296;9.516;2024-02-28T15:45:12;3.88;;;2.60;;
47812;SDS011;34221;45.296;9.516;2024-02-28T15:45:28;4.30;;;2.40;;
47812;SDS011;34221;45.296;9.516;2024-02-28T15:45:43;5.80;;;2.23;;
47812;SDS011;34221;45.296;9.516;2024-02-28T15:45:58;5.13;;;2.30;;
47812;SDS011;34221;45.296;9.516;2024-02-28T15:46:33;3.63;;;2.35;;
47812;SDS011;34221;45.296;9.516;2024-02-28T15:46:47;4.20;;;2.80;;
47812;SDS011;34221;45.296;9.516;2024-02-28T15:47:02;3.90;;;2.63;;
47812;SDS011;34221;45.296;9.516;2024-02-28T15:47:17;4.07;;;2.42;;
47812;SDS011;34221;45.296;9.516;2024-02-28T15:47:32;3.95;;;2.67;;
47812;SDS011;34221;45.296;9.516;2024-02-28T15:47:47;3.45;;;2.42;;
47812;SDS011;34221;45.296;9.516;2024-02-28T15:48:02;3.58;;;2.35;;